sensor_id;sensor_type;location;lat;lon;timestamp;P1;durP1;ratioP1;P2;durP2;ratioP2
19733;SDS011;10018;51.230;7.860;2023-06-14T00:02:14;12.47;;;9.43;;
19733;SDS011;10018;51.230;7.860;2023-06-14T00:04:40;12.60;;;9.40;;
19733;SDS011;10018;51.230;7.860;2023-06-14T00:07:08;14.93;;;9.80;;
19733;SDS011;10018;51.230;7.860;2023-06-14T00:09:36;13.27;;;9.57;;
19733;SDS011;10018;51.230;7.860;2023-06-14T00:12:02;17.73;;;9.50;;
19733;SDS011;10018;51.230;7.860;2023-06-14T00:14:28;13.57;;;9.43;;
19733;SDS011;10018;51.230;7.860;2023-06-14T00:16:53;12.70;;;9.33;;
19733;SDS011;10018;51.230;7.860;2023-06-14T00:19:23;12.30;;;9.70;;
19733;SDS011;10018;51.230;7.860;2023-06-14T00:21:49;13.63;;;10.17;;
19733;SDS011;10018;51.230;7.860;2023-06-14T00:24:17;14.10;;;10.00;;
19733;SDS011;10018;51.230;7.860;2023-06-14T00:26:43;11.43;;;9.17;;
19733;SDS011;10018;51.230;7.860;2023-06-14T00:29:11;13.73;;;10.00;;
19733;SDS011;10018;51.230;7.860;2023-06-14T00:31:36;13.93;;;10.17;;
19733;SDS011;10018;51.230;7.860;2023-06-14T00:34:04;12.77;;;9.87;;
19733;SDS011;10018;51.230;7.860;2023-06-14T00:36:30;14.17;;;11.00;;
19733;SDS011;10018;51.230;7.860;2023-06-14T00:38:55;12.57;;;10.33;;
19733;SDS011;10018;51.230;7.860;2023-06-14T00:41:23;12.27;;;9.90;;
19733;SDS011;10018;51.230;7.860;2023-06-14T00:43:50;16.13;;;9.93;;
19733;SDS011;10018;51.230;7.860;2023-06-14T00:46:16;13.90;;;10.70;;
19733;SDS011;10018;51.230;7.860;2023-06-14T00:48:44;13.07;;;10.70;;
19733;SDS011;10018;51.230;7.860;2023-06-14T00:51:10;14.13;;;10.53;;
19733;SDS011;10018;51.230;7.860;2023-06-14T00:53:35;14.07;;;10.10;;
19733;SDS011;10018;51.230;7.860;2023-06-14T00:56:04;14.43;;;10.50;;
19733;SDS011;10018;51.230;7.860;2023-06-14T00:58:30;14.50;;;10.53;;
19733;SDS011;10018;51.230;7.860;2023-06-14T01:00:57;13.40;;;10.33;;
19733;SDS011;10018;51.230;7.860;2023-06-14T01:03:23;15.53;;;10.70;;
19733;SDS011;10018;51.230;7.860;2023-06-14T01:05:50;12.40;;;10.13;;
19733;SDS011;10018;51.230;7.860;2023-06-14T01:11:12;13.43;;;9.90;;
19733;SDS011;10018;51.230;7.860;2023-06-14T01:14:02;11.97;;;9.40;;
19733;SDS011;10018;51.230;7.860;2023-06-14T01:16:29;14.37;;;10.20;;
19733;SDS011;10018;51.230;7.860;2023-06-14T01:18:57;13.50;;;10.20;;
19733;SDS011;10018;51.230;7.860;2023-06-14T01:21:23;13.33;;;9.77;;
19733;SDS011;10018;51.230;7.860;2023-06-14T01:23:51;14.53;;;10.47;;
19733;SDS011;10018;51.230;7.860;2023-06-14T01:26:20;13.30;;;10.23;;
19733;SDS011;10018;51.230;7.860;2023-06-14T01:28:49;13.07;;;10.20;;
19733;SDS011;10018;51.230;7.860;2023-06-14T01:31:17;13.13;;;9.70;;
19733;SDS011;10018;51.230;7.860;2023-06-14T01:33:48;15.47;;;10.47;;
19733;SDS011;10018;51.230;7.860;2023-06-14T01:36:15;15.30;;;10.57;;
19733;SDS011;10018;51.230;7.860;2023-06-14T01:38:45;14.47;;;10.00;;
19733;SDS011;10018;51.230;7.860;2023-06-14T01:41:13;14.07;;;9.33;;
19733;SDS011;10018;51.230;7.860;2023-06-14T01:43:42;13.27;;;10.10;;
19733;SDS011;10018;51.230;7.860;2023-06-14T01:46:09;12.63;;;9.90;;
19733;SDS011;10018;51.230;7.860;2023-06-14T01:48:35;13.47;;;10.33;;
19733;SDS011;10018;51.230;7.860;2023-06-14T01:51:01;13.43;;;10.40;;
19733;SDS011;10018;51.230;7.860;2023-06-14T01:53:29;13.07;;;10.10;;
19733;SDS011;10018;51.230;7.860;2023-06-14T01:55:54;15.80;;;9.90;;
19733;SDS011;10018;51.230;7.860;2023-06-14T01:58:20;13.27;;;9.57;;
19733;SDS011;10018;51.230;7.860;2023-06-14T02:00:46;13.30;;;9.33;;
19733;SDS011;10018;51.230;7.860;2023-06-14T02:03:12;12.70;;;10.30;;
19733;SDS011;10018;51.230;7.860;2023-06-14T02:05:38;12.33;;;9.73;;
19733;SDS011;10018;51.230;7.860;2023-06-14T02:08:06;14.17;;;9.90;;
19733;SDS011;10018;51.230;7.860;2023-06-14T02:10:34;14.43;;;10.73;;
19733;SDS011;10018;51.230;7.860;2023-06-14T02:13:02;14.53;;;10.70;;
19733;SDS011;10018;51.230;7.860;2023-06-14T02:15:27;14.93;;;10.53;;
19733;SDS011;10018;51.230;7.860;2023-06-14T02:17:58;13.53;;;9.90;;
19733;SDS011;10018;51.230;7.860;2023-06-14T02:20:25;17.53;;;10.40;;
19733;SDS011;10018;51.230;7.860;2023-06-14T02:22:50;13.17;;;10.33;;
19733;SDS011;10018;51.230;7.860;2023-06-14T02:25:18;12.07;;;9.60;;
19733;SDS011;10018;51.230;7.860;2023-06-14T02:27:44;15.40;;;10.73;;
19733;SDS011;10018;51.230;7.860;2023-06-14T02:30:09;12.37;;;9.50;;
19733;SDS011;10018;51.230;7.860;2023-06-14T02:32:35;14.30;;;9.20;;
19733;SDS011;10018;51.230;7.860;2023-06-14T02:35:01;11.47;;;8.87;;
19733;SDS011;10018;51.230;7.860;2023-06-14T02:37:27;12.97;;;9.47;;
19733;SDS011;10018;51.230;7.860;2023-06-14T02:39:58;13.20;;;9.80;;
19733;SDS011;10018;51.230;7.860;2023-06-14T02:42:24;11.93;;;9.27;;
19733;SDS011;10018;51.230;7.860;2023-06-14T02:44:49;13.20;;;10.27;;
19733;SDS011;10018;51.230;7.860;2023-06-14T02:47:16;14.00;;;9.87;;
19733;SDS011;10018;51.230;7.860;2023-06-14T02:49:43;14.40;;;10.43;;
19733;SDS011;10018;51.230;7.860;2023-06-14T02:52:11;13.47;;;10.63;;
19733;SDS011;10018;51.230;7.860;2023-06-14T02:54:37;14.07;;;10.37;;
19733;SDS011;10018;51.230;7.860;2023-06-14T02:57:02;15.73;;;10.37;;
19733;SDS011;10018;51.230;7.860;2023-06-14T02:59:28;12.53;;;10.23;;
19733;SDS011;10018;51.230;7.860;2023-06-14T03:01:53;14.03;;;10.23;;
19733;SDS011;10018;51.230;7.860;2023-06-14T03:04:19;11.90;;;9.73;;
19733;SDS011;10018;51.230;7.860;2023-06-14T03:06:45;16.93;;;9.80;;
19733;SDS011;10018;51.230;7.860;2023-06-14T03:09:15;14.20;;;11.17;;
19733;SDS011;10018;51.230;7.860;2023-06-14T03:11:41;14.97;;;10.77;;
19733;SDS011;10018;51.230;7.860;2023-06-14T03:14:08;22.93;;;12.17;;
19733;SDS011;10018;51.230;7.860;2023-06-14T03:16:38;13.80;;;10.73;;
19733;SDS011;10018;51.230;7.860;2023-06-14T03:19:06;15.87;;;11.67;;
19733;SDS011;10018;51.230;7.860;2023-06-14T03:21:32;14.93;;;11.10;;
19733;SDS011;10018;51.230;7.860;2023-06-14T03:23:57;15.13;;;11.10;;
19733;SDS011;10018;51.230;7.860;2023-06-14T03:26:23;17.97;;;10.70;;
19733;SDS011;10018;51.230;7.860;2023-06-14T03:28:50;15.73;;;10.83;;
19733;SDS011;10018;51.230;7.860;2023-06-14T03:31:15;16.43;;;10.53;;
19733;SDS011;10018;51.230;7.860;2023-06-14T03:33:44;13.63;;;9.97;;
19733;SDS011;10018;51.230;7.860;2023-06-14T03:36:09;15.33;;;10.90;;
19733;SDS011;10018;51.230;7.860;2023-06-14T03:38:35;16.87;;;11.53;;
19733;SDS011;10018;51.230;7.860;2023-06-14T03:41:01;14.37;;;11.27;;
19733;SDS011;10018;51.230;7.860;2023-06-14T03:43:27;14.80;;;11.20;;
19733;SDS011;10018;51.230;7.860;2023-06-14T03:45:52;16.70;;;11.77;;
19733;SDS011;10018;51.230;7.860;2023-06-14T03:48:18;15.90;;;10.97;;
19733;SDS011;10018;51.230;7.860;2023-06-14T03:50:44;14.47;;;10.53;;
19733;SDS011;10018;51.230;7.860;2023-06-14T03:53:09;14.53;;;10.00;;
19733;SDS011;10018;51.230;7.860;2023-06-14T03:55:37;14.47;;;10.20;;
19733;SDS011;10018;51.230;7.860;2023-06-14T03:58:06;13.33;;;10.03;;
19733;SDS011;10018;51.230;7.860;2023-06-14T04:00:32;14.73;;;10.53;;
19733;SDS011;10018;51.230;7.860;2023-06-14T04:02:57;15.43;;;10.23;;
19733;SDS011;10018;51.230;7.860;2023-06-14T04:05:23;16.07;;;10.30;;
19733;SDS011;10018;51.230;7.860;2023-06-14T04:07:51;15.67;;;10.00;;
19733;SDS011;10018;51.230;7.860;2023-06-14T04:10:17;14.53;;;10.30;;
19733;SDS011;10018;51.230;7.860;2023-06-14T04:12:43;14.37;;;10.10;;
19733;SDS011;10018;51.230;7.860;2023-06-14T04:15:20;13.93;;;11.13;;
19733;SDS011;10018;51.230;7.860;2023-06-14T04:17:48;13.43;;;10.43;;
19733;SDS011;10018;51.230;7.860;2023-06-14T04:20:14;16.20;;;10.83;;
19733;SDS011;10018;51.230;7.860;2023-06-14T04:22:40;16.00;;;10.60;;
19733;SDS011;10018;51.230;7.860;2023-06-14T04:25:09;15.27;;;10.13;;
19733;SDS011;10018;51.230;7.860;2023-06-14T04:27:40;13.63;;;9.77;;
19733;SDS011;10018;51.230;7.860;2023-06-14T04:30:06;15.47;;;10.70;;
19733;SDS011;10018;51.230;7.860;2023-06-14T04:32:35;15.13;;;11.30;;
19733;SDS011;10018;51.230;7.860;2023-06-14T04:35:06;17.60;;;11.07;;
19733;SDS011;10018;51.230;7.860;2023-06-14T04:37:33;15.70;;;10.33;;
19733;SDS011;10018;51.230;7.860;2023-06-14T04:39:59;18.60;;;10.10;;
19733;SDS011;10018;51.230;7.860;2023-06-14T04:42:25;14.80;;;9.83;;
19733;SDS011;10018;51.230;7.860;2023-06-14T04:44:55;12.20;;;9.60;;
19733;SDS011;10018;51.230;7.860;2023-06-14T04:47:21;12.37;;;9.67;;
19733;SDS011;10018;51.230;7.860;2023-06-14T04:49:49;18.00;;;10.37;;
19733;SDS011;10018;51.230;7.860;2023-06-14T04:52:17;15.47;;;9.60;;
19733;SDS011;10018;51.230;7.860;2023-06-14T04:54:45;15.60;;;10.53;;
19733;SDS011;10018;51.230;7.860;2023-06-14T04:57:11;15.73;;;11.60;;
19733;SDS011;10018;51.230;7.860;2023-06-14T04:59:38;15.60;;;11.10;;
19733;SDS011;10018;51.230;7.860;2023-06-14T05:02:04;16.80;;;10.10;;
19733;SDS011;10018;51.230;7.860;2023-06-14T05:04:31;13.77;;;10.70;;
19733;SDS011;10018;51.230;7.860;2023-06-14T05:06:57;19.57;;;10.90;;
19733;SDS011;10018;51.230;7.860;2023-06-14T05:09:22;14.87;;;10.80;;
19733;SDS011;10018;51.230;7.860;2023-06-14T05:11:48;17.33;;;9.97;;
19733;SDS011;10018;51.230;7.860;2023-06-14T05:14:15;14.40;;;10.23;;
19733;SDS011;10018;51.230;7.860;2023-06-14T05:16:41;18.60;;;10.50;;
19733;SDS011;10018;51.230;7.860;2023-06-14T05:19:07;12.77;;;10.47;;
19733;SDS011;10018;51.230;7.860;2023-06-14T05:21:33;16.30;;;10.07;;
19733;SDS011;10018;51.230;7.860;2023-06-14T05:24:00;12.60;;;9.60;;
19733;SDS011;10018;51.230;7.860;2023-06-14T05:26:25;16.13;;;9.90;;
19733;SDS011;10018;51.230;7.860;2023-06-14T05:28:55;14.07;;;9.77;;
19733;SDS011;10018;51.230;7.860;2023-06-14T05:31:22;12.50;;;9.60;;
19733;SDS011;10018;51.230;7.860;2023-06-14T05:33:54;13.73;;;10.03;;
19733;SDS011;10018;51.230;7.860;2023-06-14T05:36:20;12.00;;;9.30;;
19733;SDS011;10018;51.230;7.860;2023-06-14T05:38:48;31.07;;;11.60;;
19733;SDS011;10018;51.230;7.860;2023-06-14T05:41:15;33.63;;;11.00;;
19733;SDS011;10018;51.230;7.860;2023-06-14T05:43:41;19.77;;;10.17;;
19733;SDS011;10018;51.230;7.860;2023-06-14T05:46:06;17.47;;;10.10;;
19733;SDS011;10018;51.230;7.860;2023-06-14T05:48:32;15.80;;;10.00;;
19733;SDS011;10018;51.230;7.860;2023-06-14T05:50:58;12.83;;;9.23;;
19733;SDS011;10018;51.230;7.860;2023-06-14T05:53:24;16.80;;;10.33;;
19733;SDS011;10018;51.230;7.860;2023-06-14T05:55:50;12.27;;;9.67;;
19733;SDS011;10018;51.230;7.860;2023-06-14T05:58:19;18.80;;;9.23;;
19733;SDS011;10018;51.230;7.860;2023-06-14T06:00:45;15.33;;;9.43;;
19733;SDS011;10018;51.230;7.860;2023-06-14T06:03:11;13.40;;;9.00;;
19733;SDS011;10018;51.230;7.860;2023-06-14T06:05:38;14.47;;;8.87;;
19733;SDS011;10018;51.230;7.860;2023-06-14T06:08:05;13.23;;;8.57;;
19733;SDS011;10018;51.230;7.860;2023-06-14T06:10:31;12.97;;;8.23;;
19733;SDS011;10018;51.230;7.860;2023-06-14T06:12:57;12.97;;;8.30;;
19733;SDS011;10018;51.230;7.860;2023-06-14T06:15:22;10.70;;;7.63;;
19733;SDS011;10018;51.230;7.860;2023-06-14T06:17:48;13.07;;;7.67;;
19733;SDS011;10018;51.230;7.860;2023-06-14T06:20:14;13.97;;;7.20;;
19733;SDS011;10018;51.230;7.860;2023-06-14T06:22:39;12.93;;;7.10;;
19733;SDS011;10018;51.230;7.860;2023-06-14T06:25:08;11.47;;;7.10;;
19733;SDS011;10018;51.230;7.860;2023-06-14T06:27:34;12.20;;;6.43;;
19733;SDS011;10018;51.230;7.860;2023-06-14T06:30:01;9.77;;;6.23;;
19733;SDS011;10018;51.230;7.860;2023-06-14T06:32:26;11.40;;;6.73;;
19733;SDS011;10018;51.230;7.860;2023-06-14T06:34:54;9.23;;;6.07;;
19733;SDS011;10018;51.230;7.860;2023-06-14T06:37:20;11.40;;;5.73;;
19733;SDS011;10018;51.230;7.860;2023-06-14T06:39:45;12.87;;;4.77;;
19733;SDS011;10018;51.230;7.860;2023-06-14T06:42:12;9.17;;;4.07;;
19733;SDS011;10018;51.230;7.860;2023-06-14T06:44:38;9.07;;;3.27;;
19733;SDS011;10018;51.230;7.860;2023-06-14T06:47:03;6.40;;;3.17;;
19733;SDS011;10018;51.230;7.860;2023-06-14T06:49:29;5.27;;;2.80;;
19733;SDS011;10018;51.230;7.860;2023-06-14T06:52:02;8.63;;;3.30;;
19733;SDS011;10018;51.230;7.860;2023-06-14T06:54:29;4.33;;;2.13;;
19733;SDS011;10018;51.230;7.860;2023-06-14T06:56:55;5.33;;;2.50;;
19733;SDS011;10018;51.230;7.860;2023-06-14T06:59:21;5.23;;;2.83;;
19733;SDS011;10018;51.230;7.860;2023-06-14T07:01:47;7.50;;;2.83;;
19733;SDS011;10018;51.230;7.860;2023-06-14T07:04:13;8.37;;;2.57;;
19733;SDS011;10018;51.230;7.860;2023-06-14T07:06:39;5.20;;;2.13;;
19733;SDS011;10018;51.230;7.860;2023-06-14T07:09:05;5.10;;;2.47;;
19733;SDS011;10018;51.230;7.860;2023-06-14T07:11:37;4.73;;;2.47;;
19733;SDS011;10018;51.230;7.860;2023-06-14T07:14:06;4.70;;;2.40;;
19733;SDS011;10018;51.230;7.860;2023-06-14T07:16:32;3.97;;;2.40;;
19733;SDS011;10018;51.230;7.860;2023-06-14T07:19:00;3.97;;;2.10;;
19733;SDS011;10018;51.230;7.860;2023-06-14T07:21:29;4.50;;;2.30;;
19733;SDS011;10018;51.230;7.860;2023-06-14T07:23:55;7.00;;;2.90;;
19733;SDS011;10018;51.230;7.860;2023-06-14T07:26:21;7.80;;;3.00;;
19733;SDS011;10018;51.230;7.860;2023-06-14T07:28:48;4.20;;;2.70;;
19733;SDS011;10018;51.230;7.860;2023-06-14T07:31:16;8.63;;;2.83;;
19733;SDS011;10018;51.230;7.860;2023-06-14T07:33:44;4.17;;;2.97;;
19733;SDS011;10018;51.230;7.860;2023-06-14T07:36:10;5.47;;;3.13;;
19733;SDS011;10018;51.230;7.860;2023-06-14T07:38:35;4.90;;;2.83;;
19733;SDS011;10018;51.230;7.860;2023-06-14T07:41:01;7.03;;;2.70;;
19733;SDS011;10018;51.230;7.860;2023-06-14T07:43:27;6.57;;;2.60;;
19733;SDS011;10018;51.230;7.860;2023-06-14T07:45:52;4.30;;;2.60;;
19733;SDS011;10018;51.230;7.860;2023-06-14T07:48:18;4.87;;;2.30;;
19733;SDS011;10018;51.230;7.860;2023-06-14T07:50:44;3.80;;;2.40;;
19733;SDS011;10018;51.230;7.860;2023-06-14T07:53:09;6.37;;;1.93;;
19733;SDS011;10018;51.230;7.860;2023-06-14T07:55:35;4.70;;;1.93;;
19733;SDS011;10018;51.230;7.860;2023-06-14T07:58:04;9.27;;;2.40;;
19733;SDS011;10018;51.230;7.860;2023-06-14T08:00:32;5.77;;;2.20;;
19733;SDS011;10018;51.230;7.860;2023-06-14T08:02:58;4.77;;;1.90;;
19733;SDS011;10018;51.230;7.860;2023-06-14T08:05:27;5.73;;;2.00;;
19733;SDS011;10018;51.230;7.860;2023-06-14T08:07:54;4.87;;;2.23;;
19733;SDS011;10018;51.230;7.860;2023-06-14T08:10:22;3.97;;;1.90;;
19733;SDS011;10018;51.230;7.860;2023-06-14T08:12:48;3.57;;;1.80;;
19733;SDS011;10018;51.230;7.860;2023-06-14T08:15:16;2.70;;;1.60;;
19733;SDS011;10018;51.230;7.860;2023-06-14T08:17:44;3.50;;;1.90;;
19733;SDS011;10018;51.230;7.860;2023-06-14T08:20:10;5.17;;;1.87;;
19733;SDS011;10018;51.230;7.860;2023-06-14T08:22:36;7.03;;;2.13;;
19733;SDS011;10018;51.230;7.860;2023-06-14T08:25:02;3.93;;;1.90;;
19733;SDS011;10018;51.230;7.860;2023-06-14T08:27:28;3.17;;;1.80;;
19733;SDS011;10018;51.230;7.860;2023-06-14T08:29:54;3.73;;;1.80;;
19733;SDS011;10018;51.230;7.860;2023-06-14T08:32:21;3.90;;;1.70;;
19733;SDS011;10018;51.230;7.860;2023-06-14T08:34:47;4.50;;;1.83;;
19733;SDS011;10018;51.230;7.860;2023-06-14T08:37:12;3.53;;;1.63;;
19733;SDS011;10018;51.230;7.860;2023-06-14T08:39:38;4.83;;;1.73;;
19733;SDS011;10018;51.230;7.860;2023-06-14T08:42:04;5.33;;;2.10;;
19733;SDS011;10018;51.230;7.860;2023-06-14T08:44:32;4.67;;;1.70;;
19733;SDS011;10018;51.230;7.860;2023-06-14T08:46:59;3.73;;;1.77;;
19733;SDS011;10018;51.230;7.860;2023-06-14T08:49:25;5.07;;;2.20;;
19733;SDS011;10018;51.230;7.860;2023-06-14T08:51:53;5.77;;;2.00;;
19733;SDS011;10018;51.230;7.860;2023-06-14T08:54:26;2.57;;;1.73;;
19733;SDS011;10018;51.230;7.860;2023-06-14T08:56:55;3.70;;;1.90;;
19733;SDS011;10018;51.230;7.860;2023-06-14T08:59:26;3.87;;;1.90;;
19733;SDS011;10018;51.230;7.860;2023-06-14T09:01:52;4.07;;;1.90;;
19733;SDS011;10018;51.230;7.860;2023-06-14T09:04:19;5.07;;;1.53;;
19733;SDS011;10018;51.230;7.860;2023-06-14T09:06:49;4.47;;;1.80;;
19733;SDS011;10018;51.230;7.860;2023-06-14T09:09:19;3.43;;;1.93;;
19733;SDS011;10018;51.230;7.860;2023-06-14T09:11:49;3.20;;;2.00;;
19733;SDS011;10018;51.230;7.860;2023-06-14T09:14:15;3.70;;;1.80;;
19733;SDS011;10018;51.230;7.860;2023-06-14T09:16:43;4.07;;;1.90;;
19733;SDS011;10018;51.230;7.860;2023-06-14T09:19:10;4.17;;;1.57;;
19733;SDS011;10018;51.230;7.860;2023-06-14T09:21:48;3.23;;;1.70;;
19733;SDS011;10018;51.230;7.860;2023-06-14T09:24:14;3.97;;;1.73;;
19733;SDS011;10018;51.230;7.860;2023-06-14T09:26:40;2.33;;;1.53;;
19733;SDS011;10018;51.230;7.860;2023-06-14T09:29:05;2.83;;;1.60;;
19733;SDS011;10018;51.230;7.860;2023-06-14T09:31:31;2.13;;;1.27;;
19733;SDS011;10018;51.230;7.860;2023-06-14T09:33:57;3.80;;;1.50;;
19733;SDS011;10018;51.230;7.860;2023-06-14T09:36:26;3.03;;;1.40;;
19733;SDS011;10018;51.230;7.860;2023-06-14T09:38:55;2.50;;;1.40;;
19733;SDS011;10018;51.230;7.860;2023-06-14T09:41:30;3.33;;;1.23;;
19733;SDS011;10018;51.230;7.860;2023-06-14T09:44:00;5.97;;;1.40;;
19733;SDS011;10018;51.230;7.860;2023-06-14T09:46:27;3.00;;;1.23;;
19733;SDS011;10018;51.230;7.860;2023-06-14T09:48:54;2.20;;;1.03;;
19733;SDS011;10018;51.230;7.860;2023-06-14T09:51:22;2.03;;;1.10;;
19733;SDS011;10018;51.230;7.860;2023-06-14T09:53:48;2.63;;;1.30;;
19733;SDS011;10018;51.230;7.860;2023-06-14T09:59:06;2.70;;;1.00;;
19733;SDS011;10018;51.230;7.860;2023-06-14T10:01:33;5.30;;;1.50;;
19733;SDS011;10018;51.230;7.860;2023-06-14T10:04:06;1.97;;;1.30;;
19733;SDS011;10018;51.230;7.860;2023-06-14T10:06:41;3.17;;;1.30;;
19733;SDS011;10018;51.230;7.860;2023-06-14T10:09:10;2.60;;;1.33;;
19733;SDS011;10018;51.230;7.860;2023-06-14T10:11:37;2.50;;;1.20;;
19733;SDS011;10018;51.230;7.860;2023-06-14T10:14:08;4.33;;;1.37;;
19733;SDS011;10018;51.230;7.860;2023-06-14T10:16:39;4.53;;;1.50;;
19733;SDS011;10018;51.230;7.860;2023-06-14T10:19:16;3.77;;;1.30;;
19733;SDS011;10018;51.230;7.860;2023-06-14T10:22:05;2.83;;;1.23;;
19733;SDS011;10018;51.230;7.860;2023-06-14T10:24:43;2.93;;;1.33;;
19733;SDS011;10018;51.230;7.860;2023-06-14T10:27:11;2.93;;;1.50;;
19733;SDS011;10018;51.230;7.860;2023-06-14T10:30:23;4.77;;;1.80;;
19733;SDS011;10018;51.230;7.860;2023-06-14T10:32:27;4.70;;;1.80;;
19733;SDS011;10018;51.230;7.860;2023-06-14T10:34:59;5.80;;;1.83;;
19733;SDS011;10018;51.230;7.860;2023-06-14T10:37:26;5.17;;;1.83;;
19733;SDS011;10018;51.230;7.860;2023-06-14T10:39:52;5.67;;;1.83;;
19733;SDS011;10018;51.230;7.860;2023-06-14T10:42:18;2.90;;;1.70;;
19733;SDS011;10018;51.230;7.860;2023-06-14T10:47:34;4.07;;;1.77;;
19733;SDS011;10018;51.230;7.860;2023-06-14T10:52:28;3.57;;;2.17;;
19733;SDS011;10018;51.230;7.860;2023-06-14T10:57:46;2.90;;;2.00;;
19733;SDS011;10018;51.230;7.860;2023-06-14T11:00:21;7.00;;;2.33;;
19733;SDS011;10018;51.230;7.860;2023-06-14T11:11:09;3.73;;;2.30;;
19733;SDS011;10018;51.230;7.860;2023-06-14T11:13:38;7.10;;;2.43;;
19733;SDS011;10018;51.230;7.860;2023-06-14T11:16:12;4.37;;;2.20;;
19733;SDS011;10018;51.230;7.860;2023-06-14T11:18:39;4.30;;;2.50;;
19733;SDS011;10018;51.230;7.860;2023-06-14T11:21:08;3.20;;;2.33;;
19733;SDS011;10018;51.230;7.860;2023-06-14T11:23:34;3.53;;;2.20;;
19733;SDS011;10018;51.230;7.860;2023-06-14T11:26:00;5.13;;;2.30;;
19733;SDS011;10018;51.230;7.860;2023-06-14T11:28:36;3.60;;;2.30;;
19733;SDS011;10018;51.230;7.860;2023-06-14T11:31:03;5.60;;;2.23;;
19733;SDS011;10018;51.230;7.860;2023-06-14T11:33:29;4.20;;;2.40;;
19733;SDS011;10018;51.230;7.860;2023-06-14T11:35:57;4.50;;;2.40;;
19733;SDS011;10018;51.230;7.860;2023-06-14T11:38:23;5.97;;;2.40;;
19733;SDS011;10018;51.230;7.860;2023-06-14T11:40:51;5.23;;;2.33;;
19733;SDS011;10018;51.230;7.860;2023-06-14T11:43:17;5.07;;;2.57;;
19733;SDS011;10018;51.230;7.860;2023-06-14T11:45:47;5.43;;;2.40;;
19733;SDS011;10018;51.230;7.860;2023-06-14T11:48:13;3.83;;;2.67;;
19733;SDS011;10018;51.230;7.860;2023-06-14T11:50:41;4.30;;;2.53;;
19733;SDS011;10018;51.230;7.860;2023-06-14T11:53:09;3.80;;;1.90;;
19733;SDS011;10018;51.230;7.860;2023-06-14T11:55:36;3.57;;;2.10;;
19733;SDS011;10018;51.230;7.860;2023-06-14T11:58:03;4.13;;;2.30;;
19733;SDS011;10018;51.230;7.860;2023-06-14T12:00:28;8.53;;;2.20;;
19733;SDS011;10018;51.230;7.860;2023-06-14T12:02:54;4.47;;;2.20;;
19733;SDS011;10018;51.230;7.860;2023-06-14T12:05:21;3.40;;;2.30;;
19733;SDS011;10018;51.230;7.860;2023-06-14T12:07:48;4.07;;;2.47;;
19733;SDS011;10018;51.230;7.860;2023-06-14T12:10:15;4.40;;;2.30;;
19733;SDS011;10018;51.230;7.860;2023-06-14T12:12:41;4.63;;;2.80;;
19733;SDS011;10018;51.230;7.860;2023-06-14T12:15:10;4.63;;;2.40;;
19733;SDS011;10018;51.230;7.860;2023-06-14T12:17:39;4.17;;;2.60;;
19733;SDS011;10018;51.230;7.860;2023-06-14T12:20:09;3.90;;;2.20;;
19733;SDS011;10018;51.230;7.860;2023-06-14T12:22:53;3.43;;;2.50;;
19733;SDS011;10018;51.230;7.860;2023-06-14T12:25:28;3.80;;;2.53;;
19733;SDS011;10018;51.230;7.860;2023-06-14T12:27:56;3.07;;;2.43;;
19733;SDS011;10018;51.230;7.860;2023-06-14T12:30:22;7.63;;;2.67;;
19733;SDS011;10018;51.230;7.860;2023-06-14T12:32:47;6.07;;;2.60;;
19733;SDS011;10018;51.230;7.860;2023-06-14T12:35:13;3.30;;;2.50;;
19733;SDS011;10018;51.230;7.860;2023-06-14T12:37:40;2.97;;;2.20;;
19733;SDS011;10018;51.230;7.860;2023-06-14T12:40:06;8.70;;;2.30;;
19733;SDS011;10018;51.230;7.860;2023-06-14T12:42:32;3.87;;;2.50;;
19733;SDS011;10018;51.230;7.860;2023-06-14T12:44:58;4.67;;;2.57;;
19733;SDS011;10018;51.230;7.860;2023-06-14T12:47:25;2.87;;;2.17;;
19733;SDS011;10018;51.230;7.860;2023-06-14T12:49:50;8.93;;;2.60;;
19733;SDS011;10018;51.230;7.860;2023-06-14T12:52:16;4.60;;;2.30;;
19733;SDS011;10018;51.230;7.860;2023-06-14T12:54:42;3.87;;;2.40;;
19733;SDS011;10018;51.230;7.860;2023-06-14T12:57:10;4.07;;;2.30;;
19733;SDS011;10018;51.230;7.860;2023-06-14T12:59:35;6.13;;;2.70;;
19733;SDS011;10018;51.230;7.860;2023-06-14T13:02:13;5.10;;;2.60;;
19733;SDS011;10018;51.230;7.860;2023-06-14T13:04:40;3.53;;;2.10;;
19733;SDS011;10018;51.230;7.860;2023-06-14T13:07:06;4.03;;;2.50;;
19733;SDS011;10018;51.230;7.860;2023-06-14T13:09:32;7.43;;;2.40;;
19733;SDS011;10018;51.230;7.860;2023-06-14T13:11:57;3.53;;;2.70;;
19733;SDS011;10018;51.230;7.860;2023-06-14T13:14:23;3.60;;;2.43;;
19733;SDS011;10018;51.230;7.860;2023-06-14T13:16:49;4.80;;;2.23;;
19733;SDS011;10018;51.230;7.860;2023-06-14T13:19:17;6.50;;;2.43;;
19733;SDS011;10018;51.230;7.860;2023-06-14T13:21:45;5.00;;;2.70;;
19733;SDS011;10018;51.230;7.860;2023-06-14T13:24:10;6.87;;;2.73;;
19733;SDS011;10018;51.230;7.860;2023-06-14T13:26:36;5.03;;;2.50;;
19733;SDS011;10018;51.230;7.860;2023-06-14T13:29:01;5.73;;;2.47;;
19733;SDS011;10018;51.230;7.860;2023-06-14T13:31:28;4.40;;;2.60;;
19733;SDS011;10018;51.230;7.860;2023-06-14T13:33:54;3.70;;;2.23;;
19733;SDS011;10018;51.230;7.860;2023-06-14T13:36:22;3.87;;;2.93;;
19733;SDS011;10018;51.230;7.860;2023-06-14T13:38:47;6.33;;;3.27;;
19733;SDS011;10018;51.230;7.860;2023-06-14T13:41:13;6.47;;;2.63;;
19733;SDS011;10018;51.230;7.860;2023-06-14T13:43:39;3.20;;;2.40;;
19733;SDS011;10018;51.230;7.860;2023-06-14T13:46:05;3.20;;;2.30;;
19733;SDS011;10018;51.230;7.860;2023-06-14T13:48:31;5.13;;;2.40;;
19733;SDS011;10018;51.230;7.860;2023-06-14T13:50:56;3.97;;;2.43;;
19733;SDS011;10018;51.230;7.860;2023-06-14T13:53:24;4.70;;;2.37;;
19733;SDS011;10018;51.230;7.860;2023-06-14T13:55:50;5.40;;;2.70;;
19733;SDS011;10018;51.230;7.860;2023-06-14T13:58:17;4.83;;;2.87;;
19733;SDS011;10018;51.230;7.860;2023-06-14T14:00:44;7.10;;;3.17;;
19733;SDS011;10018;51.230;7.860;2023-06-14T14:03:09;5.13;;;2.97;;
19733;SDS011;10018;51.230;7.860;2023-06-14T14:05:36;8.37;;;2.97;;
19733;SDS011;10018;51.230;7.860;2023-06-14T14:08:01;5.43;;;3.10;;
19733;SDS011;10018;51.230;7.860;2023-06-14T14:10:27;4.70;;;2.70;;
19733;SDS011;10018;51.230;7.860;2023-06-14T14:12:53;5.53;;;2.70;;
19733;SDS011;10018;51.230;7.860;2023-06-14T14:15:19;3.17;;;2.80;;
19733;SDS011;10018;51.230;7.860;2023-06-14T14:17:45;4.73;;;2.63;;
19733;SDS011;10018;51.230;7.860;2023-06-14T14:20:13;3.20;;;2.67;;
19733;SDS011;10018;51.230;7.860;2023-06-14T14:22:41;5.23;;;2.90;;
19733;SDS011;10018;51.230;7.860;2023-06-14T14:25:07;7.57;;;2.73;;
19733;SDS011;10018;51.230;7.860;2023-06-14T14:27:33;3.87;;;2.70;;
19733;SDS011;10018;51.230;7.860;2023-06-14T14:29:59;6.30;;;2.67;;
19733;SDS011;10018;51.230;7.860;2023-06-14T14:32:24;4.60;;;3.00;;
19733;SDS011;10018;51.230;7.860;2023-06-14T14:34:50;4.73;;;2.90;;
19733;SDS011;10018;51.230;7.860;2023-06-14T14:37:16;4.83;;;2.70;;
19733;SDS011;10018;51.230;7.860;2023-06-14T14:39:43;4.03;;;2.70;;
19733;SDS011;10018;51.230;7.860;2023-06-14T14:42:10;6.50;;;3.00;;
19733;SDS011;10018;51.230;7.860;2023-06-14T14:44:37;4.23;;;2.93;;
19733;SDS011;10018;51.230;7.860;2023-06-14T14:47:03;6.40;;;2.90;;
19733;SDS011;10018;51.230;7.860;2023-06-14T14:49:30;3.23;;;2.60;;
19733;SDS011;10018;51.230;7.860;2023-06-14T14:51:59;6.78;;;3.10;;
19733;SDS011;10018;51.230;7.860;2023-06-14T14:54:24;6.47;;;3.00;;
19733;SDS011;10018;51.230;7.860;2023-06-14T14:56:51;4.87;;;3.03;;
19733;SDS011;10018;51.230;7.860;2023-06-14T14:59:16;7.70;;;3.37;;
19733;SDS011;10018;51.230;7.860;2023-06-14T15:01:46;6.13;;;3.33;;